sensor_id;sensor_type;location;lat;lon;timestamp;temperature;humidity
2973;DHT22;1496;51.404;7.232;2022-11-21T00:00:43;4.30;99.90
2973;DHT22;1496;51.404;7.232;2022-11-21T00:03:10;4.40;99.90
2973;DHT22;1496;51.404;7.232;2022-11-21T00:05:39;4.40;99.90
2973;DHT22;1496;51.404;7.232;2022-11-21T00:08:13;4.40;99.90
2973;DHT22;1496;51.404;7.232;2022-11-21T00:10:39;4.30;99.90
2973;DHT22;1496;51.404;7.232;2022-11-21T00:13:06;4.40;99.90
2973;DHT22;1496;51.404;7.232;2022-11-21T00:15:33;4.20;99.90
2973;DHT22;1496;51.404;7.232;2022-11-21T00:18:01;4.10;99.90
2973;DHT22;1496;51.404;7.232;2022-11-21T00:20:27;4.10;99.90
2973;DHT22;1496;51.404;7.232;2022-11-21T00:22:53;4.20;99.90
2973;DHT22;1496;51.404;7.232;2022-11-21T00:25:18;4.10;99.90
2973;DHT22;1496;51.404;7.232;2022-11-21T00:27:44;4.10;99.90
2973;DHT22;1496;51.404;7.232;2022-11-21T00:30:10;4.00;99.90
2973;DHT22;1496;51.404;7.232;2022-11-21T00:32:37;4.10;99.90
2973;DHT22;1496;51.404;7.232;2022-11-21T00:35:04;4.10;99.90
2973;DHT22;1496;51.404;7.232;2022-11-21T00:37:31;4.10;99.90
2973;DHT22;1496;51.404;7.232;2022-11-21T00:39:57;3.90;99.90
2973;DHT22;1496;51.404;7.232;2022-11-21T00:42:23;3.90;99.90
2973;DHT22;1496;51.404;7.232;2022-11-21T00:44:48;3.90;99.90
2973;DHT22;1496;51.404;7.232;2022-11-21T00:47:14;3.70;99.90
2973;DHT22;1496;51.404;7.232;2022-11-21T00:49:40;3.80;99.90
2973;DHT22;1496;51.404;7.232;2022-11-21T00:52:05;3.90;99.90
2973;DHT22;1496;51.404;7.232;2022-11-21T00:54:31;3.90;99.90
2973;DHT22;1496;51.404;7.232;2022-11-21T00:56:57;3.70;99.90
2973;DHT22;1496;51.404;7.232;2022-11-21T00:59:22;3.80;99.90
2973;DHT22;1496;51.404;7.232;2022-11-21T01:01:48;3.90;99.90
2973;DHT22;1496;51.404;7.232;2022-11-21T01:04:13;4.10;99.90
2973;DHT22;1496;51.404;7.232;2022-11-21T01:06:39;4.20;99.90
2973;DHT22;1496;51.404;7.232;2022-11-21T01:09:05;4.20;99.90
2973;DHT22;1496;51.404;7.232;2022-11-21T01:11:31;4.00;99.90
2973;DHT22;1496;51.404;7.232;2022-11-21T01:13:57;4.00;99.90
2973;DHT22;1496;51.404;7.232;2022-11-21T01:16:24;4.00;99.90
2973;DHT22;1496;51.404;7.232;2022-11-21T01:18:50;4.10;99.90
2973;DHT22;1496;51.404;7.232;2022-11-21T01:21:25;4.20;99.90
2973;DHT22;1496;51.404;7.232;2022-11-21T01:23:51;4.10;99.90
2973;DHT22;1496;51.404;7.232;2022-11-21T01:26:22;4.10;99.90
2973;DHT22;1496;51.404;7.232;2022-11-21T01:28:49;3.90;99.90
2973;DHT22;1496;51.404;7.232;2022-11-21T01:31:23;3.80;99.90
2973;DHT22;1496;51.404;7.232;2022-11-21T01:33:50;3.70;99.90
2973;DHT22;1496;51.404;7.232;2022-11-21T01:36:18;3.80;99.90
2973;DHT22;1496;51.404;7.232;2022-11-21T01:38:46;3.80;99.90
2973;DHT22;1496;51.404;7.232;2022-11-21T01:41:14;3.80;99.90
2973;DHT22;1496;51.404;7.232;2022-11-21T01:43:40;3.80;99.90
2973;DHT22;1496;51.404;7.232;2022-11-21T01:46:22;3.90;99.90
2973;DHT22;1496;51.404;7.232;2022-11-21T01:49:05;3.90;99.90
2973;DHT22;1496;51.404;7.232;2022-11-21T01:51:36;3.90;99.90
2973;DHT22;1496;51.404;7.232;2022-11-21T01:54:08;3.80;99.90
2973;DHT22;1496;51.404;7.232;2022-11-21T01:56:43;3.70;99.90
2973;DHT22;1496;51.404;7.232;2022-11-21T01:59:14;3.70;99.90
2973;DHT22;1496;51.404;7.232;2022-11-21T02:01:41;3.70;99.90
2973;DHT22;1496;51.404;7.232;2022-11-21T02:04:08;3.70;99.90
2973;DHT22;1496;51.404;7.232;2022-11-21T02:06:35;3.70;99.90
2973;DHT22;1496;51.404;7.232;2022-11-21T02:09:02;3.60;99.90
2973;DHT22;1496;51.404;7.232;2022-11-21T02:11:37;3.50;99.90
2973;DHT22;1496;51.404;7.232;2022-11-21T02:14:04;3.60;99.90
2973;DHT22;1496;51.404;7.232;2022-11-21T02:16:30;3.60;99.90
2973;DHT22;1496;51.404;7.232;2022-11-21T02:18:55;3.70;99.90
2973;DHT22;1496;51.404;7.232;2022-11-21T02:21:48;3.70;99.90
2973;DHT22;1496;51.404;7.232;2022-11-21T02:26:49;3.60;99.90
2973;DHT22;1496;51.404;7.232;2022-11-21T02:29:15;3.60;99.90
2973;DHT22;1496;51.404;7.232;2022-11-21T02:31:41;3.60;99.90
2973;DHT22;1496;51.404;7.232;2022-11-21T02:34:06;3.70;99.90
2973;DHT22;1496;51.404;7.232;2022-11-21T02:36:41;3.70;99.90
2973;DHT22;1496;51.404;7.232;2022-11-21T02:39:13;3.70;99.90
2973;DHT22;1496;51.404;7.232;2022-11-21T02:41:44;3.70;99.90
2973;DHT22;1496;51.404;7.232;2022-11-21T02:44:25;3.60;99.90
2973;DHT22;1496;51.404;7.232;2022-11-21T02:46:53;3.70;99.90
2973;DHT22;1496;51.404;7.232;2022-11-21T02:49:30;3.70;99.90
2973;DHT22;1496;51.404;7.232;2022-11-21T02:51:59;3.80;99.90
2973;DHT22;1496;51.404;7.232;2022-11-21T02:54:24;3.90;99.90
2973;DHT22;1496;51.404;7.232;2022-11-21T02:56:50;3.90;99.90
2973;DHT22;1496;51.404;7.232;2022-11-21T02:59:15;4.00;99.90
2973;DHT22;1496;51.404;7.232;2022-11-21T03:01:41;4.00;99.90
2973;DHT22;1496;51.404;7.232;2022-11-21T03:04:07;3.90;99.90
2973;DHT22;1496;51.404;7.232;2022-11-21T03:06:32;3.80;99.90
2973;DHT22;1496;51.404;7.232;2022-11-21T03:08:58;3.80;99.90
2973;DHT22;1496;51.404;7.232;2022-11-21T03:11:24;3.70;99.90
2973;DHT22;1496;51.404;7.232;2022-11-21T03:13:49;3.80;99.90
2973;DHT22;1496;51.404;7.232;2022-11-21T03:16:15;3.70;99.90
2973;DHT22;1496;51.404;7.232;2022-11-21T03:18:40;3.70;99.90
2973;DHT22;1496;51.404;7.232;2022-11-21T03:21:06;3.70;99.90
2973;DHT22;1496;51.404;7.232;2022-11-21T03:23:32;3.70;99.90
2973;DHT22;1496;51.404;7.232;2022-11-21T03:25:58;3.60;99.90
2973;DHT22;1496;51.404;7.232;2022-11-21T03:28:23;3.60;99.90
2973;DHT22;1496;51.404;7.232;2022-11-21T03:30:49;3.70;99.90
2973;DHT22;1496;51.404;7.232;2022-11-21T03:33:15;3.70;99.90
2973;DHT22;1496;51.404;7.232;2022-11-21T03:35:41;3.70;99.90
2973;DHT22;1496;51.404;7.232;2022-11-21T03:38:06;3.70;99.90
2973;DHT22;1496;51.404;7.232;2022-11-21T03:40:32;3.90;99.90
2973;DHT22;1496;51.404;7.232;2022-11-21T03:43:05;3.80;99.90
2973;DHT22;1496;51.404;7.232;2022-11-21T03:45:32;3.80;99.90
2973;DHT22;1496;51.404;7.232;2022-11-21T03:47:58;3.80;99.90
2973;DHT22;1496;51.404;7.232;2022-11-21T03:50:23;3.80;99.90
2973;DHT22;1496;51.404;7.232;2022-11-21T03:52:49;3.70;99.90
2973;DHT22;1496;51.404;7.232;2022-11-21T03:55:14;3.60;99.90
2973;DHT22;1496;51.404;7.232;2022-11-21T03:57:40;3.70;99.90
2973;DHT22;1496;51.404;7.232;2022-11-21T04:00:06;3.70;99.90
2973;DHT22;1496;51.404;7.232;2022-11-21T04:02:32;3.70;99.90
2973;DHT22;1496;51.404;7.232;2022-11-21T04:04:58;3.70;99.90
2973;DHT22;1496;51.404;7.232;2022-11-21T04:07:23;3.60;99.90
2973;DHT22;1496;51.404;7.232;2022-11-21T04:09:50;3.70;99.90
2973;DHT22;1496;51.404;7.232;2022-11-21T04:12:15;3.70;99.90
2973;DHT22;1496;51.404;7.232;2022-11-21T04:14:41;3.70;99.90
2973;DHT22;1496;51.404;7.232;2022-11-21T04:17:06;3.70;99.90
2973;DHT22;1496;51.404;7.232;2022-11-21T04:19:32;3.60;99.90
2973;DHT22;1496;51.404;7.232;2022-11-21T04:21:58;3.60;99.90
2973;DHT22;1496;51.404;7.232;2022-11-21T04:24:23;3.70;99.90
2973;DHT22;1496;51.404;7.232;2022-11-21T04:26:49;3.80;99.90
2973;DHT22;1496;51.404;7.232;2022-11-21T04:29:14;3.90;99.90
2973;DHT22;1496;51.404;7.232;2022-11-21T04:31:40;3.80;99.90
2973;DHT22;1496;51.404;7.232;2022-11-21T04:34:05;3.80;99.90
2973;DHT22;1496;51.404;7.232;2022-11-21T04:36:31;3.80;99.90
2973;DHT22;1496;51.404;7.232;2022-11-21T04:38:57;3.90;99.90
2973;DHT22;1496;51.404;7.232;2022-11-21T04:41:22;3.80;99.90
2973;DHT22;1496;51.404;7.232;2022-11-21T04:43:48;3.80;99.90
2973;DHT22;1496;51.404;7.232;2022-11-21T04:46:13;3.70;99.90
2973;DHT22;1496;51.404;7.232;2022-11-21T04:48:39;3.70;99.90
2973;DHT22;1496;51.404;7.232;2022-11-21T04:51:04;3.80;99.90
2973;DHT22;1496;51.404;7.232;2022-11-21T04:53:30;3.90;99.90
2973;DHT22;1496;51.404;7.232;2022-11-21T04:55:56;3.90;99.90
2973;DHT22;1496;51.404;7.232;2022-11-21T04:58:21;3.80;99.90
2973;DHT22;1496;51.404;7.232;2022-11-21T05:00:47;3.80;99.90
2973;DHT22;1496;51.404;7.232;2022-11-21T05:03:12;3.80;99.90
2973;DHT22;1496;51.404;7.232;2022-11-21T05:05:39;3.80;99.90
2973;DHT22;1496;51.404;7.232;2022-11-21T05:08:05;3.90;99.90
2973;DHT22;1496;51.404;7.232;2022-11-21T05:10:30;3.80;99.90
2973;DHT22;1496;51.404;7.232;2022-11-21T05:13:16;3.90;99.90
2973;DHT22;1496;51.404;7.232;2022-11-21T05:15:48;3.90;99.90
2973;DHT22;1496;51.404;7.232;2022-11-21T05:18:17;3.90;99.90
2973;DHT22;1496;51.404;7.232;2022-11-21T05:20:44;3.90;99.90
2973;DHT22;1496;51.404;7.232;2022-11-21T05:23:09;3.80;99.90
2973;DHT22;1496;51.404;7.232;2022-11-21T05:25:35;3.90;99.90
2973;DHT22;1496;51.404;7.232;2022-11-21T05:28:00;3.90;99.90
2973;DHT22;1496;51.404;7.232;2022-11-21T05:30:26;3.90;99.90
2973;DHT22;1496;51.404;7.232;2022-11-21T05:32:52;3.90;99.90
2973;DHT22;1496;51.404;7.232;2022-11-21T05:35:17;3.90;99.90
2973;DHT22;1496;51.404;7.232;2022-11-21T05:37:43;3.80;99.90
2973;DHT22;1496;51.404;7.232;2022-11-21T05:40:09;3.90;99.90
2973;DHT22;1496;51.404;7.232;2022-11-21T05:42:38;3.90;99.90
2973;DHT22;1496;51.404;7.232;2022-11-21T05:45:22;3.90;99.90
2973;DHT22;1496;51.404;7.232;2022-11-21T05:47:48;4.10;99.90
2973;DHT22;1496;51.404;7.232;2022-11-21T05:50:13;4.10;99.90
2973;DHT22;1496;51.404;7.232;2022-11-21T05:52:39;4.10;99.90
2973;DHT22;1496;51.404;7.232;2022-11-21T05:55:05;4.20;99.90
2973;DHT22;1496;51.404;7.232;2022-11-21T05:57:31;4.00;99.90
2973;DHT22;1496;51.404;7.232;2022-11-21T05:59:56;3.90;99.90
2973;DHT22;1496;51.404;7.232;2022-11-21T06:02:22;3.90;99.90
2973;DHT22;1496;51.404;7.232;2022-11-21T06:05:06;3.90;99.90
2973;DHT22;1496;51.404;7.232;2022-11-21T06:07:32;3.90;99.90
2973;DHT22;1496;51.404;7.232;2022-11-21T06:09:58;3.80;99.90
2973;DHT22;1496;51.404;7.232;2022-11-21T06:12:23;3.70;99.90
2973;DHT22;1496;51.404;7.232;2022-11-21T06:14:49;3.70;99.90
2973;DHT22;1496;51.404;7.232;2022-11-21T06:17:14;3.80;99.90
2973;DHT22;1496;51.404;7.232;2022-11-21T06:19:40;3.80;99.90
2973;DHT22;1496;51.404;7.232;2022-11-21T06:22:05;3.90;99.90
2973;DHT22;1496;51.404;7.232;2022-11-21T06:24:31;3.90;99.90
2973;DHT22;1496;51.404;7.232;2022-11-21T06:26:57;3.90;99.90
2973;DHT22;1496;51.404;7.232;2022-11-21T06:29:22;3.90;99.90
2973;DHT22;1496;51.404;7.232;2022-11-21T06:31:48;4.00;99.90
2973;DHT22;1496;51.404;7.232;2022-11-21T06:34:15;4.00;99.90
2973;DHT22;1496;51.404;7.232;2022-11-21T06:36:40;4.00;99.90
2973;DHT22;1496;51.404;7.232;2022-11-21T06:39:06;4.00;99.90
2973;DHT22;1496;51.404;7.232;2022-11-21T06:41:32;4.10;99.90
2973;DHT22;1496;51.404;7.232;2022-11-21T06:43:58;4.00;99.90
2973;DHT22;1496;51.404;7.232;2022-11-21T06:46:25;4.00;99.90
2973;DHT22;1496;51.404;7.232;2022-11-21T06:48:51;3.90;99.90
2973;DHT22;1496;51.404;7.232;2022-11-21T06:51:21;3.90;99.90
2973;DHT22;1496;51.404;7.232;2022-11-21T06:53:54;3.90;99.90
2973;DHT22;1496;51.404;7.232;2022-11-21T06:56:21;3.90;99.90
2973;DHT22;1496;51.404;7.232;2022-11-21T06:58:47;4.00;99.90
2973;DHT22;1496;51.404;7.232;2022-11-21T07:01:13;4.00;99.90
2973;DHT22;1496;51.404;7.232;2022-11-21T07:03:39;4.00;99.90
2973;DHT22;1496;51.404;7.232;2022-11-21T07:06:05;4.00;99.90
2973;DHT22;1496;51.404;7.232;2022-11-21T07:08:32;4.00;99.90
2973;DHT22;1496;51.404;7.232;2022-11-21T07:11:01;4.10;99.90
2973;DHT22;1496;51.404;7.232;2022-11-21T07:13:27;4.10;99.90
2973;DHT22;1496;51.404;7.232;2022-11-21T07:15:54;4.00;99.90
2973;DHT22;1496;51.404;7.232;2022-11-21T07:18:21;4.00;99.90
2973;DHT22;1496;51.404;7.232;2022-11-21T07:20:51;3.90;99.90
2973;DHT22;1496;51.404;7.232;2022-11-21T07:23:19;4.00;99.90
2973;DHT22;1496;51.404;7.232;2022-11-21T07:25:44;4.00;99.90
2973;DHT22;1496;51.404;7.232;2022-11-21T07:28:10;4.00;99.90
2973;DHT22;1496;51.404;7.232;2022-11-21T07:30:36;4.00;99.90
2973;DHT22;1496;51.404;7.232;2022-11-21T07:33:03;4.10;99.90
2973;DHT22;1496;51.404;7.232;2022-11-21T07:35:30;4.10;99.90
2973;DHT22;1496;51.404;7.232;2022-11-21T07:37:56;4.10;99.90
2973;DHT22;1496;51.404;7.232;2022-11-21T07:40:22;4.10;99.90
2973;DHT22;1496;51.404;7.232;2022-11-21T07:42:48;4.10;99.90
2973;DHT22;1496;51.404;7.232;2022-11-21T07:45:14;4.20;99.90
2973;DHT22;1496;51.404;7.232;2022-11-21T07:47:40;4.20;99.90
2973;DHT22;1496;51.404;7.232;2022-11-21T07:50:08;4.30;99.90
2973;DHT22;1496;51.404;7.232;2022-11-21T07:52:34;4.30;99.90
2973;DHT22;1496;51.404;7.232;2022-11-21T07:54:59;4.30;99.90
2973;DHT22;1496;51.404;7.232;2022-11-21T07:57:29;4.20;99.90
2973;DHT22;1496;51.404;7.232;2022-11-21T07:59:55;4.20;99.90
2973;DHT22;1496;51.404;7.232;2022-11-21T08:02:25;4.30;99.90
2973;DHT22;1496;51.404;7.232;2022-11-21T08:04:51;4.30;99.90
2973;DHT22;1496;51.404;7.232;2022-11-21T08:07:19;4.40;99.90
2973;DHT22;1496;51.404;7.232;2022-11-21T08:09:44;4.50;99.90
2973;DHT22;1496;51.404;7.232;2022-11-21T08:12:11;4.50;99.90
2973;DHT22;1496;51.404;7.232;2022-11-21T08:14:37;4.50;99.90
2973;DHT22;1496;51.404;7.232;2022-11-21T08:17:03;4.60;99.90
2973;DHT22;1496;51.404;7.232;2022-11-21T08:19:29;4.60;99.90
2973;DHT22;1496;51.404;7.232;2022-11-21T08:21:55;4.70;99.90
2973;DHT22;1496;51.404;7.232;2022-11-21T08:24:21;4.70;99.90
2973;DHT22;1496;51.404;7.232;2022-11-21T08:26:46;4.60;99.90
2973;DHT22;1496;51.404;7.232;2022-11-21T08:29:12;4.60;99.90
2973;DHT22;1496;51.404;7.232;2022-11-21T08:31:40;4.60;99.90
2973;DHT22;1496;51.404;7.232;2022-11-21T08:34:06;4.60;99.90
2973;DHT22;1496;51.404;7.232;2022-11-21T08:36:32;4.60;99.90
2973;DHT22;1496;51.404;7.232;2022-11-21T08:38:58;4.50;99.90
2973;DHT22;1496;51.404;7.232;2022-11-21T08:41:24;4.60;99.90
2973;DHT22;1496;51.404;7.232;2022-11-21T08:44:08;4.60;99.90
2973;DHT22;1496;51.404;7.232;2022-11-21T08:46:34;4.60;99.90
2973;DHT22;1496;51.404;7.232;2022-11-21T08:49:02;4.60;99.90
2973;DHT22;1496;51.404;7.232;2022-11-21T08:51:28;4.60;99.90
2973;DHT22;1496;51.404;7.232;2022-11-21T08:53:54;4.70;99.90
2973;DHT22;1496;51.404;7.232;2022-11-21T08:56:19;4.60;99.90
2973;DHT22;1496;51.404;7.232;2022-11-21T08:58:45;4.70;99.90
2973;DHT22;1496;51.404;7.232;2022-11-21T09:01:11;4.60;99.90
2973;DHT22;1496;51.404;7.232;2022-11-21T09:03:36;4.70;99.90
2973;DHT22;1496;51.404;7.232;2022-11-21T09:06:02;4.60;99.90
2973;DHT22;1496;51.404;7.232;2022-11-21T09:08:28;4.60;99.90
2973;DHT22;1496;51.404;7.232;2022-11-21T09:10:54;4.70;99.90
2973;DHT22;1496;51.404;7.232;2022-11-21T09:13:19;4.80;99.90
2973;DHT22;1496;51.404;7.232;2022-11-21T09:15:45;4.90;99.90
2973;DHT22;1496;51.404;7.232;2022-11-21T09:18:29;4.90;99.90
2973;DHT22;1496;51.404;7.232;2022-11-21T09:20:55;4.90;99.90
2973;DHT22;1496;51.404;7.232;2022-11-21T09:23:22;4.90;99.90
2973;DHT22;1496;51.404;7.232;2022-11-21T09:25:48;5.00;99.90
2973;DHT22;1496;51.404;7.232;2022-11-21T09:28:14;5.00;99.90
2973;DHT22;1496;51.404;7.232;2022-11-21T09:30:40;5.00;99.90
2973;DHT22;1496;51.404;7.232;2022-11-21T09:33:11;5.00;99.90
2973;DHT22;1496;51.404;7.232;2022-11-21T09:35:37;5.00;99.90
2973;DHT22;1496;51.404;7.232;2022-11-21T09:38:04;4.90;99.90
2973;DHT22;1496;51.404;7.232;2022-11-21T09:40:30;5.00;99.90
2973;DHT22;1496;51.404;7.232;2022-11-21T09:45:50;5.10;99.90
2973;DHT22;1496;51.404;7.232;2022-11-21T09:48:33;5.10;99.90
2973;DHT22;1496;51.404;7.232;2022-11-21T09:51:06;5.00;99.90
2973;DHT22;1496;51.404;7.232;2022-11-21T09:53:55;5.10;99.90
2973;DHT22;1496;51.404;7.232;2022-11-21T09:56:22;5.20;99.90
2973;DHT22;1496;51.404;7.232;2022-11-21T10:01:37;5.20;99.90
2973;DHT22;1496;51.404;7.232;2022-11-21T10:04:03;5.30;99.90
2973;DHT22;1496;51.404;7.232;2022-11-21T10:06:31;5.30;99.90
2973;DHT22;1496;51.404;7.232;2022-11-21T10:12:02;5.30;99.90
2973;DHT22;1496;51.404;7.232;2022-11-21T10:15:22;5.40;99.90
2973;DHT22;1496;51.404;7.232;2022-11-21T10:18:20;5.40;99.90
2973;DHT22;1496;51.404;7.232;2022-11-21T10:26:53;5.80;99.90
2973;DHT22;1496;51.404;7.232;2022-11-21T10:29:31;5.80;99.90
2973;DHT22;1496;51.404;7.232;2022-11-21T10:32:03;5.90;99.90
2973;DHT22;1496;51.404;7.232;2022-11-21T10:34:35;5.90;99.90
2973;DHT22;1496;51.404;7.232;2022-11-21T10:37:15;5.90;99.90
2973;DHT22;1496;51.404;7.232;2022-11-21T10:39:49;5.90;99.90
2973;DHT22;1496;51.404;7.232;2022-11-21T10:42:43;6.00;99.90
2973;DHT22;1496;51.404;7.232;2022-11-21T10:45:13;6.00;99.90
2973;DHT22;1496;51.404;7.232;2022-11-21T10:47:43;6.10;99.90
2973;DHT22;1496;51.404;7.232;2022-11-21T10:52:42;6.10;99.90
2973;DHT22;1496;51.404;7.232;2022-11-21T10:55:11;6.20;99.90
2973;DHT22;1496;51.404;7.232;2022-11-21T10:57:46;6.30;99.90
2973;DHT22;1496;51.404;7.232;2022-11-21T11:02:42;6.30;99.90
2973;DHT22;1496;51.404;7.232;2022-11-21T11:05:28;6.40;99.90
2973;DHT22;1496;51.404;7.232;2022-11-21T11:08:24;6.50;99.90
2973;DHT22;1496;51.404;7.232;2022-11-21T11:11:06;6.50;99.90
2973;DHT22;1496;51.404;7.232;2022-11-21T11:13:34;6.50;99.90
2973;DHT22;1496;51.404;7.232;2022-11-21T11:16:17;6.50;99.90
2973;DHT22;1496;51.404;7.232;2022-11-21T11:21:22;6.50;99.90
2973;DHT22;1496;51.404;7.232;2022-11-21T11:23:51;6.40;99.90
2973;DHT22;1496;51.404;7.232;2022-11-21T11:26:26;6.40;99.90
2973;DHT22;1496;51.404;7.232;2022-11-21T11:29:06;6.40;99.90
2973;DHT22;1496;51.404;7.232;2022-11-21T11:31:48;6.40;99.90
2973;DHT22;1496;51.404;7.232;2022-11-21T11:34:15;6.40;99.90
2973;DHT22;1496;51.404;7.232;2022-11-21T11:42:13;6.50;99.90
2973;DHT22;1496;51.404;7.232;2022-11-21T11:45:15;6.50;99.90
2973;DHT22;1496;51.404;7.232;2022-11-21T11:48:08;6.60;99.90
2973;DHT22;1496;51.404;7.232;2022-11-21T11:50:49;6.60;99.90
2973;DHT22;1496;51.404;7.232;2022-11-21T11:53:25;6.60;99.90
2973;DHT22;1496;51.404;7.232;2022-11-21T11:56:05;6.50;99.90
2973;DHT22;1496;51.404;7.232;2022-11-21T11:58:45;6.60;99.90
2973;DHT22;1496;51.404;7.232;2022-11-21T12:03:59;6.60;99.90
2973;DHT22;1496;51.404;7.232;2022-11-21T12:06:27;6.80;99.90
2973;DHT22;1496;51.404;7.232;2022-11-21T12:09:02;7.00;99.90
2973;DHT22;1496;51.404;7.232;2022-11-21T12:11:42;7.00;99.90
2973;DHT22;1496;51.404;7.232;2022-11-21T12:14:49;7.10;99.90
2973;DHT22;1496;51.404;7.232;2022-11-21T12:21:09;7.00;99.90
2973;DHT22;1496;51.404;7.232;2022-11-21T12:23:09;7.00;99.90
2973;DHT22;1496;51.404;7.232;2022-11-21T12:25:48;7.00;99.90
2973;DHT22;1496;51.404;7.232;2022-11-21T12:31:38;6.80;99.90
2973;DHT22;1496;51.404;7.232;2022-11-21T12:34:38;6.80;99.90
2973;DHT22;1496;51.404;7.232;2022-11-21T12:40:09;6.90;99.90
2973;DHT22;1496;51.404;7.232;2022-11-21T12:42:46;7.00;99.90
2973;DHT22;1496;51.404;7.232;2022-11-21T12:45:28;7.10;99.90
2973;DHT22;1496;51.404;7.232;2022-11-21T12:48:17;7.00;99.90
2973;DHT22;1496;51.404;7.232;2022-11-21T12:54:22;7.00;99.90
2973;DHT22;1496;51.404;7.232;2022-11-21T13:02:29;7.00;99.90
2973;DHT22;1496;51.404;7.232;2022-11-21T13:04:57;7.10;99.90
2973;DHT22;1496;51.404;7.232;2022-11-21T13:07:26;7.10;99.90
2973;DHT22;1496;51.404;7.232;2022-11-21T13:09:55;7.20;99.90
2973;DHT22;1496;51.404;7.232;2022-11-21T13:12:47;7.20;99.90
2973;DHT22;1496;51.404;7.232;2022-11-21T13:15:25;7.10;99.90
2973;DHT22;1496;51.404;7.232;2022-11-21T13:18:17;7.00;99.90
2973;DHT22;1496;51.404;7.232;2022-11-21T13:20:49;6.90;99.90
2973;DHT22;1496;51.404;7.232;2022-11-21T13:23:38;6.80;99.90
2973;DHT22;1496;51.404;7.232;2022-11-21T13:29:14;6.80;99.90
2973;DHT22;1496;51.404;7.232;2022-11-21T13:31:41;6.80;99.90
2973;DHT22;1496;51.404;7.232;2022-11-21T13:36:51;6.70;99.90
2973;DHT22;1496;51.404;7.232;2022-11-21T13:39:23;6.70;99.90
2973;DHT22;1496;51.404;7.232;2022-11-21T13:44:38;6.70;99.90
2973;DHT22;1496;51.404;7.232;2022-11-21T13:49:52;6.80;99.90
2973;DHT22;1496;51.404;7.232;2022-11-21T13:52:34;6.70;99.90
2973;DHT22;1496;51.404;7.232;2022-11-21T14:11:51;6.80;99.90
2973;DHT22;1496;51.404;7.232;2022-11-21T14:14:33;6.80;99.90
2973;DHT22;1496;51.404;7.232;2022-11-21T14:17:07;6.80;99.90
2973;DHT22;1496;51.404;7.232;2022-11-21T14:19:34;6.80;99.90
2973;DHT22;1496;51.404;7.232;2022-11-21T14:22:00;6.80;99.90
2973;DHT22;1496;51.404;7.232;2022-11-21T14:24:26;6.70;99.90
2973;DHT22;1496;51.404;7.232;2022-11-21T14:26:52;6.70;99.90
2973;DHT22;1496;51.404;7.232;2022-11-21T14:29:25;6.80;99.90
2973;DHT22;1496;51.404;7.232;2022-11-21T14:31:51;6.70;99.90
2973;DHT22;1496;51.404;7.232;2022-11-21T14:34:28;6.80;99.90
2973;DHT22;1496;51.404;7.232;2022-11-21T14:36:58;6.80;99.90
2973;DHT22;1496;51.404;7.232;2022-11-21T14:39:30;6.70;99.90
2973;DHT22;1496;51.404;7.232;2022-11-21T14:42:03;6.80;99.90
2973;DHT22;1496;51.404;7.232;2022-11-21T14:44:30;6.70;99.90
2973;DHT22;1496;51.404;7.232;2022-11-21T14:47:22;6.80;99.90
2973;DHT22;1496;51.404;7.232;2022-11-21T14:49:49;6.70;99.90
2973;DHT22;1496;51.404;7.232;2022-11-21T14:52:18;6.70;99.90
2973;DHT22;1496;51.404;7.232;2022-11-21T14:55:03;6.70;99.90
2973;DHT22;1496;51.404;7.232;2022-11-21T14:57:35;6.70;99.90
2973;DHT22;1496;51.404;7.232;2022-11-21T15:00:05;6.70;99.90
2973;DHT22;1496;51.404;7.232;2022-11-21T15:02:32;6.70;99.90
2973;DHT22;1496;51.404;7.232;2022-11-21T15:05:03;6.70;99.90
2973;DHT22;1496;51.404;7.232;2022-11-21T15:07:38;6.60;99.90
2973;DHT22;1496;51.404;7.232;2022-11-21T15:10:05;6.60;99.90
2973;DHT22;1496;51.404;7.232;2022-11-21T15:12:35;6.60;99.90
2973;DHT22;1496;51.404;7.232;2022-11-21T15:15:11;6.50;99.90
2973;DHT22;1496;51.404;7.232;2022-11-21T15:17:43;6.50;99.90
2973;DHT22;1496;51.404;7.232;2022-11-21T15:22:41;6.40;99.90
2973;DHT22;1496;51.404;7.232;2022-11-21T15:25:22;6.40;99.90
2973;DHT22;1496;51.404;7.232;2022-11-21T15:28:12;6.30;99.90
2973;DHT22;1496;51.404;7.232;2022-11-21T15:30:38;6.30;99.90
2973;DHT22;1496;51.404;7.232;2022-11-21T15:33:15;6.30;99.90
2973;DHT22;1496;51.404;7.232;2022-11-21T15:43:34;6.30;99.90
2973;DHT22;1496;51.404;7.232;2022-11-21T15:46:02;6.30;99.90
2973;DHT22;1496;51.404;7.232;2022-11-21T15:48:28;6.30;99.90
2973;DHT22;1496;51.404;7.232;2022-11-21T15:50:55;6.30;99.90
2973;DHT22;1496;51.404;7.232;2022-11-21T15:53:20;6.20;99.90
2973;DHT22;1496;51.404;7.232;2022-11-21T15:55:46;6.20;99.90
2973;DHT22;1496;51.404;7.232;2022-11-21T15:58:11;6.10;99.90
2973;DHT22;1496;51.404;7.232;2022-11-21T16:00:37;6.10;99.90
2973;DHT22;1496;51.404;7.232;2022-11-21T16:03:03;6.00;99.90
2973;DHT22;1496;51.404;7.232;2022-11-21T16:05:28;6.00;99.90
2973;DHT22;1496;51.404;7.232;2022-11-21T16:07:54;6.00;99.90
2973;DHT22;1496;51.404;7.232;2022-11-21T16:10:19;6.00;99.90
2973;DHT22;1496;51.404;7.232;2022-11-21T16:12:46;6.00;99.90
2973;DHT22;1496;51.404;7.232;2022-11-21T16:15:12;6.00;99.90
2973;DHT22;1496;51.404;7.232;2022-11-21T16:17:38;6.00;99.90
2973;DHT22;1496;51.404;7.232;2022-11-21T16:20:05;5.90;99.90
2973;DHT22;1496;51.404;7.232;2022-11-21T16:22:31;5.90;99.90
2973;DHT22;1496;51.404;7.232;2022-11-21T16:24:56;5.90;99.90
2973;DHT22;1496;51.404;7.232;2022-11-21T16:27:22;5.90;99.90
2973;DHT22;1496;51.404;7.232;2022-11-21T16:29:47;5.80;99.90
2973;DHT22;1496;51.404;7.232;2022-11-21T16:32:13;5.80;99.90
2973;DHT22;1496;51.404;7.232;2022-11-21T16:34:39;5.90;99.90
2973;DHT22;1496;51.404;7.232;2022-11-21T16:37:04;5.80;99.90
2973;DHT22;1496;51.404;7.232;2022-11-21T16:39:30;5.80;99.90
2973;DHT22;1496;51.404;7.232;2022-11-21T16:41:56;5.80;99.90
2973;DHT22;1496;51.404;7.232;2022-11-21T16:44:21;5.80;99.90
2973;DHT22;1496;51.404;7.232;2022-11-21T16:46:47;5.80;99.90
2973;DHT22;1496;51.404;7.232;2022-11-21T16:49:14;5.80;99.90
2973;DHT22;1496;51.404;7.232;2022-11-21T16:51:39;5.70;99.90
2973;DHT22;1496;51.404;7.232;2022-11-21T16:54:05;5.80;99.90
2973;DHT22;1496;51.404;7.232;2022-11-21T16:56:31;5.80;99.90
2973;DHT22;1496;51.404;7.232;2022-11-21T16:58:56;5.80;99.90
2973;DHT22;1496;51.404;7.232;2022-11-21T17:01:25;5.80;99.90
2973;DHT22;1496;51.404;7.232;2022-11-21T17:03:52;5.80;99.90
2973;DHT22;1496;51.404;7.232;2022-11-21T17:06:22;5.80;99.90
2973;DHT22;1496;51.404;7.232;2022-11-21T17:08:48;5.80;99.90
2973;DHT22;1496;51.404;7.232;2022-11-21T17:11:19;5.80;99.90
2973;DHT22;1496;51.404;7.232;2022-11-21T17:13:47;5.80;99.90
2973;DHT22;1496;51.404;7.232;2022-11-21T17:16:14;5.80;99.90
2973;DHT22;1496;51.404;7.232;2022-11-21T17:18:40;5.70;99.90
2973;DHT22;1496;51.404;7.232;2022-11-21T17:21:08;5.80;99.90
2973;DHT22;1496;51.404;7.232;2022-11-21T17:23:35;5.80;99.90
2973;DHT22;1496;51.404;7.232;2022-11-21T17:26:06;5.90;99.90
2973;DHT22;1496;51.404;7.232;2022-11-21T17:28:32;5.90;99.90
2973;DHT22;1496;51.404;7.232;2022-11-21T17:30:58;5.90;99.90
2973;DHT22;1496;51.404;7.232;2022-11-21T17:33:24;5.90;99.90
2973;DHT22;1496;51.404;7.232;2022-11-21T17:35:50;5.90;99.90
2973;DHT22;1496;51.404;7.232;2022-11-21T17:38:16;5.90;99.90
2973;DHT22;1496;51.404;7.232;2022-11-21T17:40:42;5.90;99.90
2973;DHT22;1496;51.404;7.232;2022-11-21T17:43:08;5.90;99.90
2973;DHT22;1496;51.404;7.232;2022-11-21T17:45:34;5.90;99.90
2973;DHT22;1496;51.404;7.232;2022-11-21T17:48:00;5.90;99.90
2973;DHT22;1496;51.404;7.232;2022-11-21T17:50:25;5.90;99.90
2973;DHT22;1496;51.404;7.232;2022-11-21T17:52:51;5.90;99.90
2973;DHT22;1496;51.404;7.232;2022-11-21T17:55:17;5.90;99.90
2973;DHT22;1496;51.404;7.232;2022-11-21T17:57:43;5.90;99.90
2973;DHT22;1496;51.404;7.232;2022-11-21T18:00:09;5.90;99.90